sensor_id;sensor_type;location;lat;lon;timestamp;temperature;humidity
17252;DHT22;8742;51.716;8.790;2024-01-15T00:02:10;1.30;99.90
17252;DHT22;8742;51.716;8.790;2024-01-15T00:04:37;1.40;99.90
17252;DHT22;8742;51.716;8.790;2024-01-15T00:07:04;1.40;99.90
17252;DHT22;8742;51.716;8.790;2024-01-15T00:09:31;1.40;99.90
17252;DHT22;8742;51.716;8.790;2024-01-15T00:11:59;1.40;99.90
17252;DHT22;8742;51.716;8.790;2024-01-15T00:14:27;1.40;99.90
17252;DHT22;8742;51.716;8.790;2024-01-15T00:16:54;1.40;99.90
17252;DHT22;8742;51.716;8.790;2024-01-15T00:19:21;1.40;99.90
17252;DHT22;8742;51.716;8.790;2024-01-15T00:21:49;1.40;99.90
17252;DHT22;8742;51.716;8.790;2024-01-15T00:24:16;1.40;99.90
17252;DHT22;8742;51.716;8.790;2024-01-15T00:26:43;1.40;99.90
17252;DHT22;8742;51.716;8.790;2024-01-15T00:29:10;1.40;99.90
17252;DHT22;8742;51.716;8.790;2024-01-15T00:31:38;1.40;99.90
17252;DHT22;8742;51.716;8.790;2024-01-15T00:34:05;1.40;99.90
17252;DHT22;8742;51.716;8.790;2024-01-15T00:36:32;1.40;99.90
17252;DHT22;8742;51.716;8.790;2024-01-15T00:38:58;1.40;99.90
17252;DHT22;8742;51.716;8.790;2024-01-15T00:41:25;1.40;99.90
17252;DHT22;8742;51.716;8.790;2024-01-15T00:43:53;1.40;99.90
17252;DHT22;8742;51.716;8.790;2024-01-15T00:46:20;1.40;99.90
17252;DHT22;8742;51.716;8.790;2024-01-15T00:48:48;1.40;99.90
17252;DHT22;8742;51.716;8.790;2024-01-15T00:51:15;1.40;99.90
17252;DHT22;8742;51.716;8.790;2024-01-15T00:53:42;1.40;99.90
17252;DHT22;8742;51.716;8.790;2024-01-15T00:56:09;1.40;99.90
17252;DHT22;8742;51.716;8.790;2024-01-15T00:58:35;1.40;99.90
17252;DHT22;8742;51.716;8.790;2024-01-15T01:01:02;1.40;99.90
17252;DHT22;8742;51.716;8.790;2024-01-15T01:03:30;1.40;99.90
17252;DHT22;8742;51.716;8.790;2024-01-15T01:05:58;1.40;99.90
17252;DHT22;8742;51.716;8.790;2024-01-15T01:08:25;1.40;99.90
17252;DHT22;8742;51.716;8.790;2024-01-15T01:10:51;1.40;99.90
17252;DHT22;8742;51.716;8.790;2024-01-15T01:13:18;1.40;99.90
17252;DHT22;8742;51.716;8.790;2024-01-15T01:15:45;1.40;99.90
17252;DHT22;8742;51.716;8.790;2024-01-15T01:18:12;1.40;99.90
17252;DHT22;8742;51.716;8.790;2024-01-15T01:20:38;1.40;99.90
17252;DHT22;8742;51.716;8.790;2024-01-15T01:23:07;1.40;99.90
17252;DHT22;8742;51.716;8.790;2024-01-15T01:25:33;1.40;99.90
17252;DHT22;8742;51.716;8.790;2024-01-15T01:28:00;1.40;99.90
17252;DHT22;8742;51.716;8.790;2024-01-15T01:30:27;1.40;99.90
17252;DHT22;8742;51.716;8.790;2024-01-15T01:32:54;1.40;99.90
17252;DHT22;8742;51.716;8.790;2024-01-15T01:35:21;1.40;99.90
17252;DHT22;8742;51.716;8.790;2024-01-15T01:37:47;1.40;99.90
17252;DHT22;8742;51.716;8.790;2024-01-15T01:40:16;1.40;99.90
17252;DHT22;8742;51.716;8.790;2024-01-15T01:42:43;1.40;99.90
17252;DHT22;8742;51.716;8.790;2024-01-15T01:45:11;1.40;99.90
17252;DHT22;8742;51.716;8.790;2024-01-15T01:47:38;1.40;99.90
17252;DHT22;8742;51.716;8.790;2024-01-15T01:50:05;1.40;99.90
17252;DHT22;8742;51.716;8.790;2024-01-15T01:52:33;1.40;99.90
17252;DHT22;8742;51.716;8.790;2024-01-15T01:55:00;1.40;99.90
17252;DHT22;8742;51.716;8.790;2024-01-15T01:57:31;1.40;99.90
17252;DHT22;8742;51.716;8.790;2024-01-15T01:59:59;1.40;99.90
17252;DHT22;8742;51.716;8.790;2024-01-15T02:02:26;1.40;99.90
17252;DHT22;8742;51.716;8.790;2024-01-15T02:04:53;1.40;99.90
17252;DHT22;8742;51.716;8.790;2024-01-15T02:07:20;1.40;99.90
17252;DHT22;8742;51.716;8.790;2024-01-15T02:09:47;1.40;99.90
17252;DHT22;8742;51.716;8.790;2024-01-15T02:12:14;1.40;99.90
17252;DHT22;8742;51.716;8.790;2024-01-15T02:14:42;1.40;99.90
17252;DHT22;8742;51.716;8.790;2024-01-15T02:17:09;1.40;99.90
17252;DHT22;8742;51.716;8.790;2024-01-15T02:19:36;1.40;99.90
17252;DHT22;8742;51.716;8.790;2024-01-15T02:22:05;1.40;99.90
17252;DHT22;8742;51.716;8.790;2024-01-15T02:24:33;1.40;99.90
17252;DHT22;8742;51.716;8.790;2024-01-15T02:27:00;1.40;99.90
17252;DHT22;8742;51.716;8.790;2024-01-15T02:29:27;1.40;99.90
17252;DHT22;8742;51.716;8.790;2024-01-15T02:31:53;1.40;99.90
17252;DHT22;8742;51.716;8.790;2024-01-15T02:34:20;1.40;99.90
17252;DHT22;8742;51.716;8.790;2024-01-15T02:36:47;1.40;99.90
17252;DHT22;8742;51.716;8.790;2024-01-15T02:39:14;1.40;99.90
17252;DHT22;8742;51.716;8.790;2024-01-15T02:41:42;1.40;99.90
17252;DHT22;8742;51.716;8.790;2024-01-15T02:44:09;1.40;99.90
17252;DHT22;8742;51.716;8.790;2024-01-15T02:46:36;1.40;99.90
17252;DHT22;8742;51.716;8.790;2024-01-15T02:49:02;1.40;99.90
17252;DHT22;8742;51.716;8.790;2024-01-15T02:51:29;1.40;99.90
17252;DHT22;8742;51.716;8.790;2024-01-15T02:53:56;1.40;99.90
17252;DHT22;8742;51.716;8.790;2024-01-15T02:56:23;1.40;99.90
17252;DHT22;8742;51.716;8.790;2024-01-15T02:58:51;1.40;99.90
17252;DHT22;8742;51.716;8.790;2024-01-15T03:01:18;1.50;99.90
17252;DHT22;8742;51.716;8.790;2024-01-15T03:03:45;1.50;99.90
17252;DHT22;8742;51.716;8.790;2024-01-15T03:06:12;1.50;99.90
17252;DHT22;8742;51.716;8.790;2024-01-15T03:08:39;1.50;99.90
17252;DHT22;8742;51.716;8.790;2024-01-15T03:11:06;1.50;99.90
17252;DHT22;8742;51.716;8.790;2024-01-15T03:13:35;1.50;99.90
17252;DHT22;8742;51.716;8.790;2024-01-15T03:16:04;1.60;99.90
17252;DHT22;8742;51.716;8.790;2024-01-15T03:18:31;1.60;99.90
17252;DHT22;8742;51.716;8.790;2024-01-15T03:20:58;1.60;99.90
17252;DHT22;8742;51.716;8.790;2024-01-15T03:23:26;1.60;99.90
17252;DHT22;8742;51.716;8.790;2024-01-15T03:25:53;1.60;99.90
17252;DHT22;8742;51.716;8.790;2024-01-15T03:28:20;1.60;99.90
17252;DHT22;8742;51.716;8.790;2024-01-15T03:30:47;1.50;99.90
17252;DHT22;8742;51.716;8.790;2024-01-15T03:33:15;1.50;99.90
17252;DHT22;8742;51.716;8.790;2024-01-15T03:35:42;1.50;99.90
17252;DHT22;8742;51.716;8.790;2024-01-15T03:38:09;1.50;99.90
17252;DHT22;8742;51.716;8.790;2024-01-15T03:40:35;1.50;99.90
17252;DHT22;8742;51.716;8.790;2024-01-15T03:43:02;1.60;99.90
17252;DHT22;8742;51.716;8.790;2024-01-15T03:45:29;1.60;99.90
17252;DHT22;8742;51.716;8.790;2024-01-15T03:47:56;1.60;99.90
17252;DHT22;8742;51.716;8.790;2024-01-15T03:50:24;1.60;99.90
17252;DHT22;8742;51.716;8.790;2024-01-15T03:52:51;1.60;99.90
17252;DHT22;8742;51.716;8.790;2024-01-15T03:55:18;1.60;99.90
17252;DHT22;8742;51.716;8.790;2024-01-15T03:57:45;1.60;99.90
17252;DHT22;8742;51.716;8.790;2024-01-15T04:00:14;1.60;99.90
17252;DHT22;8742;51.716;8.790;2024-01-15T04:02:42;1.60;99.90
17252;DHT22;8742;51.716;8.790;2024-01-15T04:05:09;1.60;99.90
17252;DHT22;8742;51.716;8.790;2024-01-15T04:07:38;1.60;99.90
17252;DHT22;8742;51.716;8.790;2024-01-15T04:10:05;1.60;99.90
17252;DHT22;8742;51.716;8.790;2024-01-15T04:12:32;1.60;99.90
17252;DHT22;8742;51.716;8.790;2024-01-15T04:14:59;1.60;99.90
17252;DHT22;8742;51.716;8.790;2024-01-15T04:17:27;1.60;99.90
17252;DHT22;8742;51.716;8.790;2024-01-15T04:19:54;1.60;99.90
17252;DHT22;8742;51.716;8.790;2024-01-15T04:22:21;1.60;99.90
17252;DHT22;8742;51.716;8.790;2024-01-15T04:24:49;1.60;99.90
17252;DHT22;8742;51.716;8.790;2024-01-15T04:27:15;1.60;99.90
17252;DHT22;8742;51.716;8.790;2024-01-15T04:29:42;1.60;99.90
17252;DHT22;8742;51.716;8.790;2024-01-15T04:32:10;1.60;99.90
17252;DHT22;8742;51.716;8.790;2024-01-15T04:34:37;1.60;99.90
17252;DHT22;8742;51.716;8.790;2024-01-15T04:37:04;1.60;99.90
17252;DHT22;8742;51.716;8.790;2024-01-15T04:39:30;1.60;99.90
17252;DHT22;8742;51.716;8.790;2024-01-15T04:41:59;1.60;99.90
17252;DHT22;8742;51.716;8.790;2024-01-15T04:44:25;1.60;99.90
17252;DHT22;8742;51.716;8.790;2024-01-15T04:46:52;1.60;99.90
17252;DHT22;8742;51.716;8.790;2024-01-15T04:49:19;1.60;99.90
17252;DHT22;8742;51.716;8.790;2024-01-15T04:51:46;1.60;99.90
17252;DHT22;8742;51.716;8.790;2024-01-15T04:54:13;1.60;99.90
17252;DHT22;8742;51.716;8.790;2024-01-15T04:56:43;1.60;99.90
17252;DHT22;8742;51.716;8.790;2024-01-15T04:59:11;1.60;99.90
17252;DHT22;8742;51.716;8.790;2024-01-15T05:01:38;1.60;99.90
17252;DHT22;8742;51.716;8.790;2024-01-15T05:04:04;1.60;99.90
17252;DHT22;8742;51.716;8.790;2024-01-15T05:06:31;1.60;99.90
17252;DHT22;8742;51.716;8.790;2024-01-15T05:08:58;1.60;99.90
17252;DHT22;8742;51.716;8.790;2024-01-15T05:11:25;1.60;99.90
17252;DHT22;8742;51.716;8.790;2024-01-15T05:13:52;1.50;99.90
17252;DHT22;8742;51.716;8.790;2024-01-15T05:16:20;1.50;99.90
17252;DHT22;8742;51.716;8.790;2024-01-15T05:18:47;1.50;99.90
17252;DHT22;8742;51.716;8.790;2024-01-15T05:21:14;1.50;99.90
17252;DHT22;8742;51.716;8.790;2024-01-15T05:23:41;1.50;99.90
17252;DHT22;8742;51.716;8.790;2024-01-15T05:26:08;1.50;99.90
17252;DHT22;8742;51.716;8.790;2024-01-15T05:28:34;1.40;99.90
17252;DHT22;8742;51.716;8.790;2024-01-15T05:31:01;1.40;99.90
17252;DHT22;8742;51.716;8.790;2024-01-15T05:33:31;1.40;99.90
17252;DHT22;8742;51.716;8.790;2024-01-15T05:35:57;1.40;99.90
17252;DHT22;8742;51.716;8.790;2024-01-15T05:38:25;1.40;99.90
17252;DHT22;8742;51.716;8.790;2024-01-15T05:40:51;1.40;99.90
17252;DHT22;8742;51.716;8.790;2024-01-15T05:43:18;1.40;99.90
17252;DHT22;8742;51.716;8.790;2024-01-15T05:45:45;1.40;99.90
17252;DHT22;8742;51.716;8.790;2024-01-15T05:48:12;1.40;99.90
17252;DHT22;8742;51.716;8.790;2024-01-15T05:50:41;1.40;99.90
17252;DHT22;8742;51.716;8.790;2024-01-15T05:53:08;1.40;99.90
17252;DHT22;8742;51.716;8.790;2024-01-15T05:55:36;1.40;99.90
17252;DHT22;8742;51.716;8.790;2024-01-15T05:58:03;1.40;99.90
17252;DHT22;8742;51.716;8.790;2024-01-15T06:00:30;1.30;99.90
17252;DHT22;8742;51.716;8.790;2024-01-15T06:02:58;1.30;99.90
17252;DHT22;8742;51.716;8.790;2024-01-15T06:05:25;1.30;99.90
17252;DHT22;8742;51.716;8.790;2024-01-15T06:07:53;1.30;99.90
17252;DHT22;8742;51.716;8.790;2024-01-15T06:10:20;1.30;99.90
17252;DHT22;8742;51.716;8.790;2024-01-15T06:12:47;1.30;99.90
17252;DHT22;8742;51.716;8.790;2024-01-15T06:15:14;1.30;99.90
17252;DHT22;8742;51.716;8.790;2024-01-15T06:17:47;1.30;99.90
17252;DHT22;8742;51.716;8.790;2024-01-15T06:20:27;1.30;99.90
17252;DHT22;8742;51.716;8.790;2024-01-15T06:22:56;1.30;99.90
17252;DHT22;8742;51.716;8.790;2024-01-15T06:25:22;1.30;99.90
17252;DHT22;8742;51.716;8.790;2024-01-15T06:27:49;1.30;99.90
17252;DHT22;8742;51.716;8.790;2024-01-15T06:30:16;1.30;99.90
17252;DHT22;8742;51.716;8.790;2024-01-15T06:32:43;1.30;99.90
17252;DHT22;8742;51.716;8.790;2024-01-15T06:35:10;1.30;99.90
17252;DHT22;8742;51.716;8.790;2024-01-15T06:37:37;1.30;99.90
17252;DHT22;8742;51.716;8.790;2024-01-15T06:40:07;1.30;99.90
17252;DHT22;8742;51.716;8.790;2024-01-15T06:42:34;1.30;99.90
17252;DHT22;8742;51.716;8.790;2024-01-15T06:45:01;1.30;99.90
17252;DHT22;8742;51.716;8.790;2024-01-15T06:47:28;1.20;99.90
17252;DHT22;8742;51.716;8.790;2024-01-15T06:49:56;1.30;99.90
17252;DHT22;8742;51.716;8.790;2024-01-15T06:52:23;1.30;99.90
17252;DHT22;8742;51.716;8.790;2024-01-15T06:54:50;1.30;99.90
17252;DHT22;8742;51.716;8.790;2024-01-15T06:57:18;1.30;99.90
17252;DHT22;8742;51.716;8.790;2024-01-15T06:59:46;1.30;99.90
17252;DHT22;8742;51.716;8.790;2024-01-15T07:02:12;1.30;99.90
17252;DHT22;8742;51.716;8.790;2024-01-15T07:05:15;1.30;99.90
17252;DHT22;8742;51.716;8.790;2024-01-15T07:07:59;1.30;99.90
17252;DHT22;8742;51.716;8.790;2024-01-15T07:10:26;1.30;99.90
17252;DHT22;8742;51.716;8.790;2024-01-15T07:12:54;1.30;99.90
17252;DHT22;8742;51.716;8.790;2024-01-15T07:15:21;1.40;99.90
17252;DHT22;8742;51.716;8.790;2024-01-15T07:17:48;1.40;99.90
17252;DHT22;8742;51.716;8.790;2024-01-15T07:20:15;1.40;99.90
17252;DHT22;8742;51.716;8.790;2024-01-15T07:22:44;1.40;99.90
17252;DHT22;8742;51.716;8.790;2024-01-15T07:25:10;1.30;99.90
17252;DHT22;8742;51.716;8.790;2024-01-15T07:27:38;1.40;99.90
17252;DHT22;8742;51.716;8.790;2024-01-15T07:30:07;1.30;99.90
17252;DHT22;8742;51.716;8.790;2024-01-15T07:32:34;1.40;99.90
17252;DHT22;8742;51.716;8.790;2024-01-15T07:35:01;1.40;99.90
17252;DHT22;8742;51.716;8.790;2024-01-15T07:37:28;1.40;99.90
17252;DHT22;8742;51.716;8.790;2024-01-15T07:39:55;1.40;99.90
17252;DHT22;8742;51.716;8.790;2024-01-15T07:42:22;1.40;99.90
17252;DHT22;8742;51.716;8.790;2024-01-15T07:44:48;1.40;99.90
17252;DHT22;8742;51.716;8.790;2024-01-15T07:47:18;1.40;99.90
17252;DHT22;8742;51.716;8.790;2024-01-15T07:49:45;1.40;99.90
17252;DHT22;8742;51.716;8.790;2024-01-15T07:52:12;1.40;99.90
17252;DHT22;8742;51.716;8.790;2024-01-15T07:54:39;1.40;99.90
17252;DHT22;8742;51.716;8.790;2024-01-15T07:57:06;1.40;99.90
17252;DHT22;8742;51.716;8.790;2024-01-15T07:59:33;1.40;99.90
17252;DHT22;8742;51.716;8.790;2024-01-15T08:02:01;1.40;99.90
17252;DHT22;8742;51.716;8.790;2024-01-15T08:04:29;1.40;99.90
17252;DHT22;8742;51.716;8.790;2024-01-15T08:06:56;1.40;99.90
17252;DHT22;8742;51.716;8.790;2024-01-15T08:09:23;1.40;99.90
17252;DHT22;8742;51.716;8.790;2024-01-15T08:11:50;1.40;99.90
17252;DHT22;8742;51.716;8.790;2024-01-15T08:14:18;1.40;99.90
17252;DHT22;8742;51.716;8.790;2024-01-15T08:16:49;1.40;99.90
17252;DHT22;8742;51.716;8.790;2024-01-15T08:19:16;1.40;99.90
17252;DHT22;8742;51.716;8.790;2024-01-15T08:21:44;1.40;99.90
17252;DHT22;8742;51.716;8.790;2024-01-15T08:24:11;1.40;99.90
17252;DHT22;8742;51.716;8.790;2024-01-15T08:26:38;1.40;99.90
17252;DHT22;8742;51.716;8.790;2024-01-15T08:29:05;1.40;99.90
17252;DHT22;8742;51.716;8.790;2024-01-15T08:31:31;1.30;99.90
17252;DHT22;8742;51.716;8.790;2024-01-15T08:33:58;1.30;99.90
17252;DHT22;8742;51.716;8.790;2024-01-15T08:36:27;1.30;99.90
17252;DHT22;8742;51.716;8.790;2024-01-15T08:38:56;1.30;99.90
17252;DHT22;8742;51.716;8.790;2024-01-15T08:41:23;1.30;99.90
17252;DHT22;8742;51.716;8.790;2024-01-15T08:43:50;1.30;99.90
17252;DHT22;8742;51.716;8.790;2024-01-15T08:46:18;1.30;99.90
17252;DHT22;8742;51.716;8.790;2024-01-15T08:48:46;1.30;99.90
17252;DHT22;8742;51.716;8.790;2024-01-15T08:51:15;1.30;99.90
17252;DHT22;8742;51.716;8.790;2024-01-15T08:53:44;1.30;99.90
17252;DHT22;8742;51.716;8.790;2024-01-15T08:56:12;1.30;99.90
17252;DHT22;8742;51.716;8.790;2024-01-15T08:58:39;1.30;99.90
17252;DHT22;8742;51.716;8.790;2024-01-15T09:01:06;1.30;99.90
17252;DHT22;8742;51.716;8.790;2024-01-15T09:03:33;1.30;99.90
17252;DHT22;8742;51.716;8.790;2024-01-15T09:06:00;1.30;99.90
17252;DHT22;8742;51.716;8.790;2024-01-15T09:08:27;1.30;99.90
17252;DHT22;8742;51.716;8.790;2024-01-15T09:10:54;1.40;99.90
17252;DHT22;8742;51.716;8.790;2024-01-15T09:13:22;1.40;99.90
17252;DHT22;8742;51.716;8.790;2024-01-15T09:15:49;1.40;99.90
17252;DHT22;8742;51.716;8.790;2024-01-15T09:18:15;1.40;99.90
17252;DHT22;8742;51.716;8.790;2024-01-15T09:20:42;1.40;99.90
17252;DHT22;8742;51.716;8.790;2024-01-15T09:23:09;1.40;99.90
17252;DHT22;8742;51.716;8.790;2024-01-15T09:25:36;1.40;99.90
17252;DHT22;8742;51.716;8.790;2024-01-15T09:28:03;1.40;99.90
17252;DHT22;8742;51.716;8.790;2024-01-15T09:30:32;1.40;99.90
17252;DHT22;8742;51.716;8.790;2024-01-15T09:32:58;1.40;99.90
17252;DHT22;8742;51.716;8.790;2024-01-15T09:35:25;1.40;99.90
17252;DHT22;8742;51.716;8.790;2024-01-15T09:37:52;1.50;99.90
17252;DHT22;8742;51.716;8.790;2024-01-15T09:40:20;1.50;99.90
17252;DHT22;8742;51.716;8.790;2024-01-15T09:42:47;1.50;99.90
17252;DHT22;8742;51.716;8.790;2024-01-15T09:45:14;1.50;99.90
17252;DHT22;8742;51.716;8.790;2024-01-15T09:47:43;1.60;99.90
17252;DHT22;8742;51.716;8.790;2024-01-15T09:50:10;1.60;99.90
17252;DHT22;8742;51.716;8.790;2024-01-15T09:52:37;1.60;99.90
17252;DHT22;8742;51.716;8.790;2024-01-15T09:55:04;1.60;99.90
17252;DHT22;8742;51.716;8.790;2024-01-15T09:57:32;1.60;99.90
17252;DHT22;8742;51.716;8.790;2024-01-15T09:59:59;1.50;99.90
17252;DHT22;8742;51.716;8.790;2024-01-15T10:02:29;1.50;99.90
17252;DHT22;8742;51.716;8.790;2024-01-15T10:04:58;1.50;99.90
17252;DHT22;8742;51.716;8.790;2024-01-15T10:07:26;1.50;99.90
17252;DHT22;8742;51.716;8.790;2024-01-15T10:09:53;1.50;99.90
17252;DHT22;8742;51.716;8.790;2024-01-15T10:12:21;1.50;99.90
17252;DHT22;8742;51.716;8.790;2024-01-15T10:14:48;1.60;99.90
17252;DHT22;8742;51.716;8.790;2024-01-15T10:17:15;1.60;99.90
17252;DHT22;8742;51.716;8.790;2024-01-15T10:19:43;1.70;99.90
17252;DHT22;8742;51.716;8.790;2024-01-15T10:22:11;1.80;99.90
17252;DHT22;8742;51.716;8.790;2024-01-15T10:24:38;1.80;99.90
17252;DHT22;8742;51.716;8.790;2024-01-15T10:27:07;1.80;99.90
17252;DHT22;8742;51.716;8.790;2024-01-15T10:29:34;1.70;99.90
17252;DHT22;8742;51.716;8.790;2024-01-15T10:32:02;1.70;99.90
17252;DHT22;8742;51.716;8.790;2024-01-15T10:34:30;1.70;99.90
17252;DHT22;8742;51.716;8.790;2024-01-15T10:36:57;1.70;99.90
17252;DHT22;8742;51.716;8.790;2024-01-15T10:39:25;1.70;99.90
17252;DHT22;8742;51.716;8.790;2024-01-15T10:41:52;1.80;99.90
17252;DHT22;8742;51.716;8.790;2024-01-15T10:44:19;1.80;99.90
17252;DHT22;8742;51.716;8.790;2024-01-15T10:46:46;1.80;99.90
17252;DHT22;8742;51.716;8.790;2024-01-15T10:49:14;1.80;99.90
17252;DHT22;8742;51.716;8.790;2024-01-15T10:51:42;1.80;99.90
17252;DHT22;8742;51.716;8.790;2024-01-15T10:54:09;1.80;99.90
17252;DHT22;8742;51.716;8.790;2024-01-15T10:56:40;1.80;99.90
17252;DHT22;8742;51.716;8.790;2024-01-15T10:59:08;1.80;99.90
17252;DHT22;8742;51.716;8.790;2024-01-15T11:01:37;1.80;99.90
17252;DHT22;8742;51.716;8.790;2024-01-15T11:04:04;1.90;99.90
17252;DHT22;8742;51.716;8.790;2024-01-15T11:06:41;1.90;99.90
17252;DHT22;8742;51.716;8.790;2024-01-15T11:09:09;1.90;99.90
17252;DHT22;8742;51.716;8.790;2024-01-15T11:11:36;1.90;99.90
17252;DHT22;8742;51.716;8.790;2024-01-15T11:14:07;1.90;99.90
17252;DHT22;8742;51.716;8.790;2024-01-15T11:16:54;1.90;99.90
17252;DHT22;8742;51.716;8.790;2024-01-15T11:19:21;1.90;99.90
17252;DHT22;8742;51.716;8.790;2024-01-15T11:21:48;2.00;99.90
17252;DHT22;8742;51.716;8.790;2024-01-15T11:24:33;2.00;99.90
17252;DHT22;8742;51.716;8.790;2024-01-15T11:27:00;2.00;99.90
17252;DHT22;8742;51.716;8.790;2024-01-15T11:29:33;2.00;99.90
17252;DHT22;8742;51.716;8.790;2024-01-15T11:32:02;2.00;99.90
17252;DHT22;8742;51.716;8.790;2024-01-15T11:34:55;2.00;99.90
17252;DHT22;8742;51.716;8.790;2024-01-15T11:37:24;2.00;99.90
17252;DHT22;8742;51.716;8.790;2024-01-15T11:39:55;2.00;99.90
17252;DHT22;8742;51.716;8.790;2024-01-15T11:42:22;2.00;99.90
17252;DHT22;8742;51.716;8.790;2024-01-15T11:44:50;2.10;99.90
17252;DHT22;8742;51.716;8.790;2024-01-15T11:47:33;2.10;99.90
17252;DHT22;8742;51.716;8.790;2024-01-15T11:50:07;2.10;99.90
17252;DHT22;8742;51.716;8.790;2024-01-15T11:52:36;2.10;99.90
17252;DHT22;8742;51.716;8.790;2024-01-15T11:55:11;2.10;99.90
17252;DHT22;8742;51.716;8.790;2024-01-15T11:57:45;2.10;99.90
17252;DHT22;8742;51.716;8.790;2024-01-15T12:00:15;2.10;99.90
17252;DHT22;8742;51.716;8.790;2024-01-15T12:02:44;2.00;99.90
17252;DHT22;8742;51.716;8.790;2024-01-15T12:05:12;2.00;99.90
17252;DHT22;8742;51.716;8.790;2024-01-15T12:07:39;2.00;99.90
17252;DHT22;8742;51.716;8.790;2024-01-15T12:10:10;1.90;99.90
17252;DHT22;8742;51.716;8.790;2024-01-15T12:12:50;1.90;99.90
17252;DHT22;8742;51.716;8.790;2024-01-15T12:15:21;1.80;99.90
17252;DHT22;8742;51.716;8.790;2024-01-15T12:17:48;1.80;99.90
17252;DHT22;8742;51.716;8.790;2024-01-15T12:20:15;1.80;99.90
17252;DHT22;8742;51.716;8.790;2024-01-15T12:22:43;1.80;99.90
17252;DHT22;8742;51.716;8.790;2024-01-15T12:25:11;1.80;99.90
17252;DHT22;8742;51.716;8.790;2024-01-15T12:27:38;1.80;99.90
17252;DHT22;8742;51.716;8.790;2024-01-15T12:30:06;1.80;99.90
17252;DHT22;8742;51.716;8.790;2024-01-15T12:32:36;1.80;99.90
17252;DHT22;8742;51.716;8.790;2024-01-15T12:35:03;1.90;99.90
17252;DHT22;8742;51.716;8.790;2024-01-15T12:37:30;2.00;99.90
17252;DHT22;8742;51.716;8.790;2024-01-15T12:39:59;2.10;99.90
17252;DHT22;8742;51.716;8.790;2024-01-15T12:42:26;2.20;99.90
17252;DHT22;8742;51.716;8.790;2024-01-15T12:44:55;2.20;99.90
17252;DHT22;8742;51.716;8.790;2024-01-15T12:47:22;2.20;99.90
17252;DHT22;8742;51.716;8.790;2024-01-15T12:49:52;2.20;99.90
17252;DHT22;8742;51.716;8.790;2024-01-15T12:52:20;2.10;99.90
17252;DHT22;8742;51.716;8.790;2024-01-15T12:54:48;2.10;99.90
17252;DHT22;8742;51.716;8.790;2024-01-15T12:57:15;2.10;99.90
17252;DHT22;8742;51.716;8.790;2024-01-15T12:59:42;2.10;99.90
17252;DHT22;8742;51.716;8.790;2024-01-15T13:02:09;2.00;99.90
17252;DHT22;8742;51.716;8.790;2024-01-15T13:04:36;2.00;99.90
17252;DHT22;8742;51.716;8.790;2024-01-15T13:07:05;2.00;99.90
17252;DHT22;8742;51.716;8.790;2024-01-15T13:09:32;2.00;99.90
17252;DHT22;8742;51.716;8.790;2024-01-15T13:12:00;2.00;99.90
17252;DHT22;8742;51.716;8.790;2024-01-15T13:14:28;2.10;99.90
17252;DHT22;8742;51.716;8.790;2024-01-15T13:16:55;2.10;99.90
17252;DHT22;8742;51.716;8.790;2024-01-15T13:19:22;2.10;99.90
17252;DHT22;8742;51.716;8.790;2024-01-15T13:21:49;2.10;99.90
17252;DHT22;8742;51.716;8.790;2024-01-15T13:24:18;2.00;99.90
17252;DHT22;8742;51.716;8.790;2024-01-15T13:26:45;2.00;99.90
17252;DHT22;8742;51.716;8.790;2024-01-15T13:29:13;1.90;99.90
17252;DHT22;8742;51.716;8.790;2024-01-15T13:31:40;1.90;99.90
17252;DHT22;8742;51.716;8.790;2024-01-15T13:34:07;1.90;99.90
17252;DHT22;8742;51.716;8.790;2024-01-15T13:36:34;1.90;99.90
17252;DHT22;8742;51.716;8.790;2024-01-15T13:39:04;1.80;99.90
17252;DHT22;8742;51.716;8.790;2024-01-15T13:41:35;1.80;99.90
17252;DHT22;8742;51.716;8.790;2024-01-15T13:44:13;1.90;99.90
17252;DHT22;8742;51.716;8.790;2024-01-15T13:46:49;1.90;99.90
17252;DHT22;8742;51.716;8.790;2024-01-15T13:49:16;1.90;99.90
17252;DHT22;8742;51.716;8.790;2024-01-15T13:51:43;1.90;99.90
17252;DHT22;8742;51.716;8.790;2024-01-15T13:54:16;1.90;99.90
17252;DHT22;8742;51.716;8.790;2024-01-15T13:56:44;1.80;99.90
17252;DHT22;8742;51.716;8.790;2024-01-15T13:59:12;1.80;99.90
17252;DHT22;8742;51.716;8.790;2024-01-15T14:01:39;1.80;99.90
17252;DHT22;8742;51.716;8.790;2024-01-15T14:04:06;1.80;99.90
17252;DHT22;8742;51.716;8.790;2024-01-15T14:06:33;1.80;99.90
17252;DHT22;8742;51.716;8.790;2024-01-15T14:09:00;1.80;99.90
17252;DHT22;8742;51.716;8.790;2024-01-15T14:11:29;1.70;99.90
17252;DHT22;8742;51.716;8.790;2024-01-15T14:13:57;1.70;99.90
17252;DHT22;8742;51.716;8.790;2024-01-15T14:16:24;1.70;99.90
17252;DHT22;8742;51.716;8.790;2024-01-15T14:18:51;1.60;99.90
17252;DHT22;8742;51.716;8.790;2024-01-15T14:21:18;1.60;99.90
17252;DHT22;8742;51.716;8.790;2024-01-15T14:23:45;1.60;99.90
17252;DHT22;8742;51.716;8.790;2024-01-15T14:26:11;1.50;99.90
17252;DHT22;8742;51.716;8.790;2024-01-15T14:28:38;1.50;99.90
17252;DHT22;8742;51.716;8.790;2024-01-15T14:31:06;1.50;99.90
17252;DHT22;8742;51.716;8.790;2024-01-15T14:33:33;1.50;99.90
17252;DHT22;8742;51.716;8.790;2024-01-15T14:36:00;1.50;99.90
17252;DHT22;8742;51.716;8.790;2024-01-15T14:38:27;1.50;99.90
17252;DHT22;8742;51.716;8.790;2024-01-15T14:40:54;1.50;99.90
17252;DHT22;8742;51.716;8.790;2024-01-15T14:43:21;1.50;99.90
17252;DHT22;8742;51.716;8.790;2024-01-15T14:45:47;1.50;99.90
17252;DHT22;8742;51.716;8.790;2024-01-15T14:48:19;1.50;99.90
17252;DHT22;8742;51.716;8.790;2024-01-15T14:50:48;1.50;99.90
17252;DHT22;8742;51.716;8.790;2024-01-15T14:53:16;1.50;99.90
17252;DHT22;8742;51.716;8.790;2024-01-15T14:55:43;1.50;99.90
17252;DHT22;8742;51.716;8.790;2024-01-15T14:58:13;1.50;99.90
17252;DHT22;8742;51.716;8.790;2024-01-15T15:00:40;1.50;99.90
17252;DHT22;8742;51.716;8.790;2024-01-15T15:03:07;1.50;99.90
17252;DHT22;8742;51.716;8.790;2024-01-15T15:05:37;1.50;99.90
17252;DHT22;8742;51.716;8.790;2024-01-15T15:08:04;1.50;99.90
17252;DHT22;8742;51.716;8.790;2024-01-15T15:10:34;1.50;99.90
17252;DHT22;8742;51.716;8.790;2024-01-15T15:13:01;1.50;99.90
17252;DHT22;8742;51.716;8.790;2024-01-15T15:15:30;1.50;99.90
17252;DHT22;8742;51.716;8.790;2024-01-15T15:17:57;1.50;99.90
17252;DHT22;8742;51.716;8.790;2024-01-15T15:20:24;1.50;99.90
17252;DHT22;8742;51.716;8.790;2024-01-15T15:22:52;1.50;99.90
17252;DHT22;8742;51.716;8.790;2024-01-15T15:25:21;1.50;99.90
17252;DHT22;8742;51.716;8.790;2024-01-15T15:27:48;1.50;99.90
17252;DHT22;8742;51.716;8.790;2024-01-15T15:30:15;1.40;99.90
17252;DHT22;8742;51.716;8.790;2024-01-15T15:32:42;1.40;99.90
17252;DHT22;8742;51.716;8.790;2024-01-15T15:35:09;1.40;99.90
17252;DHT22;8742;51.716;8.790;2024-01-15T15:37:36;1.40;99.90
17252;DHT22;8742;51.716;8.790;2024-01-15T15:40:05;1.30;99.90
17252;DHT22;8742;51.716;8.790;2024-01-15T15:42:34;1.30;99.90
17252;DHT22;8742;51.716;8.790;2024-01-15T15:45:01;1.40;99.90
17252;DHT22;8742;51.716;8.790;2024-01-15T15:47:28;1.40;99.90
17252;DHT22;8742;51.716;8.790;2024-01-15T15:49:54;1.40;99.90
17252;DHT22;8742;51.716;8.790;2024-01-15T15:52:21;1.30;99.90
17252;DHT22;8742;51.716;8.790;2024-01-15T15:54:48;1.40;99.90
17252;DHT22;8742;51.716;8.790;2024-01-15T15:57:16;1.40;99.90
17252;DHT22;8742;51.716;8.790;2024-01-15T15:59:43;1.40;99.90
17252;DHT22;8742;51.716;8.790;2024-01-15T16:02:12;1.40;99.90
17252;DHT22;8742;51.716;8.790;2024-01-15T16:04:39;1.40;99.90
17252;DHT22;8742;51.716;8.790;2024-01-15T16:07:06;1.40;99.90